Time;durP1;ratioP1;P1;durP2;ratioP2;P2;SDS_P1;SDS_P2;PMS_P1;PMS_P2;Temp;Humidity;BMP_temperature;BMP_pressure;BME280_temperature;BME280_humidity;BME280_pressure;Samples;Min_cycle;Max_cycle;Signal;HPM_P1;HPM_P2
2020/12/16 00:01:35;;;;;;;8.20;5.28;;;;;;;;;;5095251;28;20024;-18
2020/12/16 00:04:01;;;;;;;7.80;4.65;;;;;;;;;;5094975;28;20097;-20
2020/12/16 00:06:26;;;;;;;10.27;6.00;;;;;;;;;;5093731;28;20024;-18
2020/12/16 00:08:52;;;;;;;11.48;6.10;;;;;;;;;;5095014;28;20032;-19
2020/12/16 00:11:17;;;;;;;6.70;4.40;;;;;;;;;;5093606;28;20020;-19
2020/12/16 00:13:42;;;;;;;7.63;4.63;;;;;;;;;;5095132;28;20035;-19
2020/12/16 00:16:08;;;;;;;6.78;3.97;;;;;;;;;;5095166;28;20069;-18
2020/12/16 00:18:33;;;;;;;10.70;4.35;;;;;;;;;;5095113;28;20032;-19
2020/12/16 00:20:59;;;;;;;4.85;3.83;;;;;;;;;;5094847;28;20012;-19
2020/12/16 00:23:24;;;;;;;11.68;5.63;;;;;;;;;;5094615;28;20024;-19
2020/12/16 00:25:49;;;;;;;5.85;4.13;;;;;;;;;;5094684;28;20074;-19
2020/12/16 00:28:15;;;;;;;7.72;4.28;;;;;;;;;;5094623;28;20031;-20
2020/12/16 00:30:40;;;;;;;8.05;4.00;;;;;;;;;;5094658;28;20017;-19
2020/12/16 00:33:06;;;;;;;6.03;3.63;;;;;;;;;;5094695;28;20103;-18
2020/12/16 00:35:31;;;;;;;5.40;3.58;;;;;;;;;;5094553;28;20020;-20
2020/12/16 00:37:57;;;;;;;7.35;4.32;;;;;;;;;;5094761;28;20105;-19
2020/12/16 00:40:23;;;;;;;7.18;3.58;;;;;;;;;;5094366;28;20126;-20
2020/12/16 00:42:49;;;;;;;4.88;3.47;;;;;;;;;;5094524;28;20024;-20
2020/12/16 00:45:14;;;;;;;5.70;3.25;;;;;;;;;;5094389;28;20371;-20
2020/12/16 00:47:40;;;;;;;5.05;3.30;;;;;;;;;;5093014;28;20020;-20
2020/12/16 00:50:07;;;;;;;8.30;4.00;;;;;;;;;;5091488;28;20123;-20
2020/12/16 00:52:32;;;;;;;5.72;3.33;;;;;;;;;;5092931;28;20032;-20
2020/12/16 00:54:59;;;;;;;8.23;2.85;;;;;;;;;;5092869;28;20017;-19
2020/12/16 00:57:24;;;;;;;5.63;3.38;;;;;;;;;;5092788;28;20036;-20
2020/12/16 00:59:50;;;;;;;8.02;3.08;;;;;;;;;;5094078;28;20016;-19
2020/12/16 01:02:15;;;;;;;8.75;3.40;;;;;;;;;;5092652;28;20032;-23
2020/12/16 01:04:41;;;;;;;3.95;2.60;;;;;;;;;;5075690;28;20031;-20
2020/12/16 01:07:06;;;;;;;4.03;2.38;;;;;;;;;;5093865;28;20031;-20
2020/12/16 01:09:32;;;;;;;5.18;2.47;;;;;;;;;;5092610;28;20439;-20
2020/12/16 01:11:57;;;;;;;3.60;2.25;;;;;;;;;;5093885;28;20043;-19
2020/12/16 01:14:23;;;;;;;3.70;2.63;;;;;;;;;;5092265;28;20016;-20
2020/12/16 01:16:49;;;;;;;7.53;3.83;;;;;;;;;;5092540;28;20031;-19
2020/12/16 01:19:20;;;;;;;4.20;2.88;;;;;;;;;;5093668;28;20077;-19
2020/12/16 01:21:47;;;;;;;3.08;2.00;;;;;;;;;;5092326;28;20110;-20
2020/12/16 01:24:13;;;;;;;8.50;5.30;;;;;;;;;;5092118;28;20064;-20
2020/12/16 01:26:41;;;;;;;8.27;4.53;;;;;;;;;;5092266;28;20482;-19
2020/12/16 01:29:10;;;;;;;5.60;3.72;;;;;;;;;;5092076;28;20020;-19
2020/12/16 01:31:38;;;;;;;6.32;3.75;;;;;;;;;;5092193;28;20032;-20
2020/12/16 01:34:05;;;;;;;4.80;3.72;;;;;;;;;;5075325;28;20107;-20
2020/12/16 01:36:42;;;;;;;7.05;4.32;;;;;;;;;;5092107;28;20032;-20
2020/12/16 01:39:09;;;;;;;7.35;3.85;;;;;;;;;;5091977;28;20024;-20
2020/12/16 01:41:41;;;;;;;7.10;3.55;;;;;;;;;;5092036;28;20030;-19
2020/12/16 01:44:14;;;;;;;7.80;4.40;;;;;;;;;;5093324;28;20032;-20
2020/12/16 01:47:00;;;;;;;6.20;3.92;;;;;;;;;;5092129;28;20906;-18
2020/12/16 01:49:33;;;;;;;7.70;3.88;;;;;;;;;;5092998;28;20047;-20
2020/12/16 01:52:02;;;;;;;5.78;3.97;;;;;;;;;;5075057;28;20028;-19
2020/12/16 01:54:29;;;;;;;7.68;4.05;;;;;;;;;;5074835;28;20031;-20
2020/12/16 01:56:55;;;;;;;6.45;4.03;;;;;;;;;;5091717;28;20044;-19
2020/12/16 01:59:39;;;;;;;6.32;4.03;;;;;;;;;;5091674;28;20024;-20
2020/12/16 02:02:10;;;;;;;5.35;3.25;;;;;;;;;;5091288;28;20483;-20
2020/12/16 02:04:40;;;;;;;6.72;4.07;;;;;;;;;;5091410;28;20402;-19
2020/12/16 02:07:07;;;;;;;6.68;4.32;;;;;;;;;;5091586;28;20076;-19
2020/12/16 02:09:37;;;;;;;5.68;3.53;;;;;;;;;;5092879;28;20024;-19
2020/12/16 02:12:07;;;;;;;7.30;4.85;;;;;;;;;;5092786;28;20028;-19
2020/12/16 02:14:32;;;;;;;6.32;3.45;;;;;;;;;;5091428;28;20024;-19
2020/12/16 02:16:58;;;;;;;5.70;3.88;;;;;;;;;;5091463;28;20414;-19
2020/12/16 02:19:27;;;;;;;6.95;4.43;;;;;;;;;;5091337;28;20470;-20
2020/12/16 02:22:03;;;;;;;5.72;4.10;;;;;;;;;;5092753;28;20035;-18
2020/12/16 02:24:29;;;;;;;4.13;3.08;;;;;;;;;;5092511;28;20036;-19
2020/12/16 02:26:55;;;;;;;4.05;2.72;;;;;;;;;;5091202;28;20463;-19
2020/12/16 02:29:23;;;;;;;6.00;3.20;;;;;;;;;;5091246;28;20038;-19
2020/12/16 02:31:53;;;;;;;6.47;3.30;;;;;;;;;;5091291;28;20024;-20
2020/12/16 02:34:20;;;;;;;5.78;3.38;;;;;;;;;;5092412;28;20036;-19
2020/12/16 02:36:46;;;;;;;5.97;3.45;;;;;;;;;;5091170;28;20020;-20
2020/12/16 02:39:21;;;;;;;8.18;3.63;;;;;;;;;;5075449;28;20554;-19
2020/12/16 02:41:58;;;;;;;4.57;2.88;;;;;;;;;;5091157;28;20024;-21
2020/12/16 02:44:24;;;;;;;4.82;3.15;;;;;;;;;;5092495;28;20043;-18
2020/12/16 02:47:00;;;;;;;3.95;2.33;;;;;;;;;;5091120;28;20024;-19
2020/12/16 02:49:28;;;;;;;2.38;1.67;;;;;;;;;;5090830;28;20047;-20
2020/12/16 02:51:54;;;;;;;1.90;1.58;;;;;;;;;;5074260;28;20024;-19
2020/12/16 02:54:20;;;;;;;5.57;2.33;;;;;;;;;;5090906;28;20550;-18
2020/12/16 02:57:13;;;;;;;3.85;2.10;;;;;;;;;;5090946;28;20016;-20
2020/12/16 02:59:52;;;;;;;3.60;2.53;;;;;;;;;;5091013;28;20032;-20
2020/12/16 03:02:37;;;;;;;6.00;2.88;;;;;;;;;;5092052;28;20470;-19
2020/12/16 03:05:28;;;;;;;4.45;2.75;;;;;;;;;;5075910;28;20047;-20
2020/12/16 03:07:55;;;;;;;4.57;3.22;;;;;;;;;;5090875;28;20039;-20
2020/12/16 03:10:20;;;;;;;7.13;3.97;;;;;;;;;;5090856;28;20016;-20
2020/12/16 03:12:47;;;;;;;10.18;4.63;;;;;;;;;;5092195;28;20028;-20
2020/12/16 03:15:13;;;;;;;9.00;5.05;;;;;;;;;;5094671;28;20082;-20
2020/12/16 03:17:39;;;;;;;7.70;4.60;;;;;;;;;;5094724;28;20024;-19
2020/12/16 03:20:06;;;;;;;12.50;6.75;;;;;;;;;;5094737;28;20373;-19
2020/12/16 03:22:33;;;;;;;8.07;4.80;;;;;;;;;;5094676;28;20066;-19
2020/12/16 03:25:25;;;;;;;9.38;4.68;;;;;;;;;;5087148;28;20115;-18
2020/12/16 03:28:08;;;;;;;6.95;4.03;;;;;;;;;;5094572;28;20119;-19
2020/12/16 03:30:48;;;;;;;9.40;3.85;;;;;;;;;;5094498;28;20024;-19
2020/12/16 03:33:35;;;;;;;10.20;4.47;;;;;;;;;;5094473;28;20105;-20
2020/12/16 03:36:12;;;;;;;8.90;3.72;;;;;;;;;;5093907;28;20024;-20
2020/12/16 03:38:37;;;;;;;5.97;4.45;;;;;;;;;;5095635;28;20150;-19
2020/12/16 03:41:04;;;;;;;7.53;4.35;;;;;;;;;;5094288;28;20044;-20
2020/12/16 03:43:36;;;;;;;5.65;3.95;;;;;;;;;;5094129;28;20121;-20
2020/12/16 03:46:06;;;;;;;6.22;3.83;;;;;;;;;;5094256;28;20058;-19
2020/12/16 03:48:32;;;;;;;6.60;3.53;;;;;;;;;;5094113;28;20032;-19
2020/12/16 03:50:57;;;;;;;5.90;3.60;;;;;;;;;;5094019;28;20044;-19
2020/12/16 03:53:23;;;;;;;6.45;3.63;;;;;;;;;;5093904;28;20032;-20
2020/12/16 03:56:07;;;;;;;5.72;3.90;;;;;;;;;;5094129;28;20024;-19
2020/12/16 03:59:08;;;;;;;8.50;4.65;;;;;;;;;;5032688;28;20103;-20
2020/12/16 04:01:56;;;;;;;4.55;2.72;;;;;;;;;;5091874;28;20036;-20
2020/12/16 04:04:23;;;;;;;5.75;3.30;;;;;;;;;;5093632;28;20032;-20
2020/12/16 04:07:00;;;;;;;4.45;3.25;;;;;;;;;;5078494;28;20093;-19
2020/12/16 04:09:30;;;;;;;9.60;4.43;;;;;;;;;;5093672;28;20390;-20
2020/12/16 04:11:58;;;;;;;6.57;3.30;;;;;;;;;;5093708;28;20113;-19
2020/12/16 04:14:29;;;;;;;6.53;3.38;;;;;;;;;;5093525;28;20035;-20
2020/12/16 04:16:56;;;;;;;6.22;3.60;;;;;;;;;;5095208;28;20035;-20
2020/12/16 04:19:23;;;;;;;8.05;3.92;;;;;;;;;;5093440;28;20111;-19
2020/12/16 04:21:55;;;;;;;6.65;3.78;;;;;;;;;;5094856;28;20035;-20
2020/12/16 04:24:23;;;;;;;8.38;4.47;;;;;;;;;;5093088;28;20036;-18
2020/12/16 04:27:02;;;;;;;5.85;3.47;;;;;;;;;;5093439;28;20024;-21
2020/12/16 04:29:28;;;;;;;4.57;3.38;;;;;;;;;;5076632;28;20028;-19
2020/12/16 04:31:55;;;;;;;7.50;3.47;;;;;;;;;;5093374;28;20024;-19
2020/12/16 04:34:27;;;;;;;4.75;3.05;;;;;;;;;;5094545;28;20032;-19
2020/12/16 04:36:53;;;;;;;4.15;3.30;;;;;;;;;;5093254;28;20548;-19
2020/12/16 04:39:21;;;;;;;6.95;4.15;;;;;;;;;;5093144;28;20078;-19
2020/12/16 04:41:50;;;;;;;7.05;4.18;;;;;;;;;;5094488;28;20020;-19
2020/12/16 04:44:16;;;;;;;6.75;3.75;;;;;;;;;;5094248;28;20455;-20
2020/12/16 04:46:47;;;;;;;5.13;3.42;;;;;;;;;;5093165;28;20024;-20
2020/12/16 04:49:22;;;;;;;6.43;3.50;;;;;;;;;;5092716;28;20541;-18
2020/12/16 04:51:52;;;;;;;6.25;3.08;;;;;;;;;;5093012;28;20392;-20
2020/12/16 04:54:29;;;;;;;5.25;2.63;;;;;;;;;;5092799;28;20406;-20
2020/12/16 04:56:58;;;;;;;3.22;2.20;;;;;;;;;;5092920;28;20017;-19
2020/12/16 04:59:32;;;;;;;6.10;2.88;;;;;;;;;;5092780;28;20024;-19
2020/12/16 05:02:10;;;;;;;4.60;2.97;;;;;;;;;;5077610;28;20032;-19
2020/12/16 05:04:55;;;;;;;4.45;3.10;;;;;;;;;;5093850;28;20478;-19
2020/12/16 05:07:28;;;;;;;4.03;1.92;;;;;;;;;;5093937;28;20016;-21
2020/12/16 05:09:53;;;;;;;4.50;2.92;;;;;;;;;;5093985;28;20031;-19
2020/12/16 05:12:19;;;;;;;4.57;2.20;;;;;;;;;;5093888;28;20016;-19
2020/12/16 05:14:44;;;;;;;3.95;2.50;;;;;;;;;;5093757;28;20032;-19
2020/12/16 05:17:10;;;;;;;2.75;1.90;;;;;;;;;;5092350;28;20016;-19
2020/12/16 05:19:45;;;;;;;3.42;1.90;;;;;;;;;;5092408;28;20034;-20
2020/12/16 05:22:15;;;;;;;3.45;2.08;;;;;;;;;;5093661;28;20027;-19
2020/12/16 05:24:41;;;;;;;3.80;2.08;;;;;;;;;;5093455;28;20027;-19
2020/12/16 05:27:07;;;;;;;2.50;1.92;;;;;;;;;;5093600;28;20024;-19
2020/12/16 05:29:33;;;;;;;4.72;2.20;;;;;;;;;;5092176;28;20024;-18
2020/12/16 05:32:12;;;;;;;3.58;2.33;;;;;;;;;;5093489;28;20031;-19
2020/12/16 05:34:38;;;;;;;2.55;2.10;;;;;;;;;;5093461;28;20031;-18
2020/12/16 05:37:20;;;;;;;4.18;3.10;;;;;;;;;;5091756;28;20371;-19
2020/12/16 05:39:52;;;;;;;4.90;2.75;;;;;;;;;;5093390;28;20463;-19
2020/12/16 05:42:19;;;;;;;8.00;3.53;;;;;;;;;;5092239;28;20434;-19
2020/12/16 05:44:45;;;;;;;6.68;4.20;;;;;;;;;;5093008;28;20283;-19
2020/12/16 05:47:10;;;;;;;8.15;4.50;;;;;;;;;;5091881;28;20390;-19
2020/12/16 05:49:36;;;;;;;8.38;4.60;;;;;;;;;;5093170;28;20069;-19
2020/12/16 05:52:02;;;;;;;5.65;3.47;;;;;;;;;;5093415;28;20502;-19
2020/12/16 05:54:28;;;;;;;5.05;3.33;;;;;;;;;;5093168;28;20024;-19
2020/12/16 05:57:13;;;;;;;5.05;3.20;;;;;;;;;;5093151;28;20032;-21
2020/12/16 05:59:39;;;;;;;5.90;3.70;;;;;;;;;;5092992;28;20029;-22
2020/12/16 06:02:05;;;;;;;5.45;3.60;;;;;;;;;;5093052;28;20024;-20
2020/12/16 06:04:34;;;;;;;7.40;4.60;;;;;;;;;;5092660;28;20497;-18
2020/12/16 06:07:00;;;;;;;7.30;3.75;;;;;;;;;;5093125;28;20051;-18
2020/12/16 06:09:26;;;;;;;7.60;4.88;;;;;;;;;;5093039;28;20032;-19
2020/12/16 06:11:54;;;;;;;4.88;3.17;;;;;;;;;;5092903;28;20467;-19
2020/12/16 06:14:20;;;;;;;9.82;4.53;;;;;;;;;;5092698;28;20064;-19
2020/12/16 06:16:46;;;;;;;11.02;5.13;;;;;;;;;;5092729;28;20019;-20
2020/12/16 06:19:18;;;;;;;11.85;5.53;;;;;;;;;;5092661;28;20474;-19
2020/12/16 06:21:47;;;;;;;8.68;4.57;;;;;;;;;;5092715;28;20043;-19
2020/12/16 06:24:13;;;;;;;7.22;4.18;;;;;;;;;;5092499;28;20035;-20
2020/12/16 06:26:41;;;;;;;10.20;4.50;;;;;;;;;;5091424;28;20028;-20
2020/12/16 06:29:07;;;;;;;7.28;4.15;;;;;;;;;;5092532;28;20057;-19
2020/12/16 06:31:33;;;;;;;6.38;3.30;;;;;;;;;;5091334;28;20453;-19
2020/12/16 06:34:03;;;;;;;10.48;4.40;;;;;;;;;;5091215;28;20020;-19
2020/12/16 06:36:32;;;;;;;9.80;4.72;;;;;;;;;;5092642;28;20028;-20
2020/12/16 06:38:58;;;;;;;17.42;6.15;;;;;;;;;;5091278;28;20019;-19
2020/12/16 06:41:24;;;;;;;11.60;6.28;;;;;;;;;;5092434;28;20327;-19
2020/12/16 06:43:51;;;;;;;11.20;5.57;;;;;;;;;;5090978;28;20030;-20
2020/12/16 06:46:32;;;;;;;10.45;5.07;;;;;;;;;;5091927;28;20034;-19
2020/12/16 06:48:58;;;;;;;9.35;4.95;;;;;;;;;;5096912;28;20088;-19
2020/12/16 06:51:24;;;;;;;8.18;4.20;;;;;;;;;;5095033;28;20440;-19
2020/12/16 06:54:01;;;;;;;5.47;4.15;;;;;;;;;;5096455;28;20467;-18
2020/12/16 06:56:28;;;;;;;7.00;3.97;;;;;;;;;;5096237;28;20028;-20
2020/12/16 06:58:53;;;;;;;8.18;4.53;;;;;;;;;;5095201;28;20031;-21
2020/12/16 07:01:19;;;;;;;7.55;3.83;;;;;;;;;;5096368;28;20040;-18
2020/12/16 07:03:44;;;;;;;6.38;3.55;;;;;;;;;;5096207;28;20107;-19
2020/12/16 07:06:11;;;;;;;8.32;4.07;;;;;;;;;;5096366;28;20058;-18
2020/12/16 07:08:38;;;;;;;10.20;5.03;;;;;;;;;;5096308;28;20047;-20
2020/12/16 07:11:04;;;;;;;12.05;5.10;;;;;;;;;;5096475;28;20078;-21
2020/12/16 07:13:33;;;;;;;8.73;5.10;;;;;;;;;;5096083;28;20027;-17
2020/12/16 07:15:58;;;;;;;7.88;4.28;;;;;;;;;;5096412;28;20360;-18
2020/12/16 07:18:29;;;;;;;19.52;8.52;;;;;;;;;;5096006;28;20080;-18
2020/12/16 07:21:07;;;;;;;19.23;9.20;;;;;;;;;;5096016;28;20051;-20
2020/12/16 07:23:54;;;;;;;9.90;5.15;;;;;;;;;;5095778;28;20028;-19
2020/12/16 07:26:30;;;;;;;8.98;4.50;;;;;;;;;;5094467;28;20032;-20
2020/12/16 07:28:56;;;;;;;13.52;5.28;;;;;;;;;;5096138;28;20024;-20
2020/12/16 07:31:22;;;;;;;12.85;4.85;;;;;;;;;;5095767;28;20020;-20
2020/12/16 07:33:47;;;;;;;14.55;5.93;;;;;;;;;;5095770;28;20173;-21
2020/12/16 07:36:14;;;;;;;11.93;5.55;;;;;;;;;;5095708;28;20107;-20
2020/12/16 07:38:50;;;;;;;9.10;5.00;;;;;;;;;;5094394;28;20032;-19
2020/12/16 07:41:23;;;;;;;14.25;5.28;;;;;;;;;;5095558;28;20028;-20
2020/12/16 07:43:48;;;;;;;13.23;5.00;;;;;;;;;;5095826;28;20032;-19
2020/12/16 07:46:14;;;;;;;13.82;5.63;;;;;;;;;;5095744;28;20089;-19
2020/12/16 07:48:43;;;;;;;13.30;6.78;;;;;;;;;;5094284;28;20478;-19
2020/12/16 07:51:09;;;;;;;13.43;5.50;;;;;;;;;;5095392;28;20051;-19
2020/12/16 07:53:35;;;;;;;15.07;6.80;;;;;;;;;;5095502;28;20036;-19
2020/12/16 07:56:01;;;;;;;6.20;3.92;;;;;;;;;;5094067;28;20351;-19
2020/12/16 07:58:27;;;;;;;6.72;3.72;;;;;;;;;;5094630;28;20028;-18
2020/12/16 08:00:52;;;;;;;6.10;4.10;;;;;;;;;;5095183;28;20024;-17
2020/12/16 08:03:18;;;;;;;4.93;3.33;;;;;;;;;;5093576;28;20036;-19
2020/12/16 08:05:56;;;;;;;5.45;3.30;;;;;;;;;;5095222;28;20032;-20
2020/12/16 08:08:22;;;;;;;7.57;4.40;;;;;;;;;;5095066;28;20028;-18
2020/12/16 08:10:47;;;;;;;5.47;3.20;;;;;;;;;;5095173;28;20478;-20
2020/12/16 08:13:18;;;;;;;5.57;3.75;;;;;;;;;;5093673;28;20044;-19
2020/12/16 08:15:44;;;;;;;4.22;2.67;;;;;;;;;;5094968;28;20085;-19
2020/12/16 08:18:10;;;;;;;6.38;3.13;;;;;;;;;;5093910;28;20024;-18
2020/12/16 08:20:35;;;;;;;4.05;2.30;;;;;;;;;;5093567;28;20027;-19
2020/12/16 08:23:01;;;;;;;4.40;2.55;;;;;;;;;;5094828;28;20020;-18
2020/12/16 08:25:27;;;;;;;5.65;2.92;;;;;;;;;;5094790;28;20082;-18
2020/12/16 08:28:04;;;;;;;14.25;5.50;;;;;;;;;;5094782;28;20043;-19
2020/12/16 08:30:33;;;;;;;15.05;6.32;;;;;;;;;;5094709;28;20036;-18
2020/12/16 08:33:09;;;;;;;14.50;7.35;;;;;;;;;;5094581;28;20016;-19
2020/12/16 08:35:34;;;;;;;19.17;8.43;;;;;;;;;;5094586;28;20027;-18
2020/12/16 08:38:07;;;;;;;15.88;7.05;;;;;;;;;;5094642;28;20024;-18
2020/12/16 08:40:37;;;;;;;12.35;5.57;;;;;;;;;;5094488;28;20020;-20
2020/12/16 08:43:19;;;;;;;13.45;5.93;;;;;;;;;;5094413;28;20042;-18
2020/12/16 08:45:46;;;;;;;11.40;5.90;;;;;;;;;;5094482;28;20039;-16
2020/12/16 08:48:11;;;;;;;11.68;7.40;;;;;;;;;;5094444;28;20094;-20
2020/12/16 08:50:43;;;;;;;10.43;4.30;;;;;;;;;;5094092;28;20136;-18
2020/12/16 08:53:10;;;;;;;5.95;3.63;;;;;;;;;;5094346;28;20031;-18
2020/12/16 08:55:37;;;;;;;10.23;4.22;;;;;;;;;;5094132;28;20028;-19
2020/12/16 08:58:03;;;;;;;6.57;4.38;;;;;;;;;;5094229;28;20042;-18
2020/12/16 09:00:33;;;;;;;9.13;5.03;;;;;;;;;;5076001;28;20013;-19
2020/12/16 09:03:17;;;;;;;12.40;6.22;;;;;;;;;;5092902;28;20028;-18
2020/12/16 09:05:42;;;;;;;10.73;7.18;;;;;;;;;;5094095;28;20036;-17
2020/12/16 09:08:13;;;;;;;7.75;4.78;;;;;;;;;;5092719;28;20492;-19
2020/12/16 09:10:39;;;;;;;9.48;4.85;;;;;;;;;;5092797;28;20047;-19
2020/12/16 09:13:08;;;;;;;6.25;3.65;;;;;;;;;;5093789;28;20020;-18
2020/12/16 09:15:34;;;;;;;5.93;3.63;;;;;;;;;;5092465;28;20032;-20
2020/12/16 09:18:00;;;;;;;5.88;3.22;;;;;;;;;;5093727;28;20016;-19
2020/12/16 09:20:26;;;;;;;4.88;2.97;;;;;;;;;;5093363;28;20374;-18
2020/12/16 09:22:53;;;;;;;6.43;3.05;;;;;;;;;;5093671;28;20031;-18
2020/12/16 09:25:20;;;;;;;3.90;2.75;;;;;;;;;;5093532;28;20039;-17
2020/12/16 09:27:49;;;;;;;4.80;2.33;;;;;;;;;;5093623;28;20504;-17
2020/12/16 09:30:23;;;;;;;5.22;2.35;;;;;;;;;;5093532;28;20474;-19
2020/12/16 09:32:48;;;;;;;6.57;3.78;;;;;;;;;;5093520;28;20036;-19
2020/12/16 09:35:13;;;;;;;9.48;4.68;;;;;;;;;;5093513;28;20103;-19
2020/12/16 09:37:39;;;;;;;6.18;4.18;;;;;;;;;;5093362;28;20057;-18
2020/12/16 09:40:09;;;;;;;9.40;5.03;;;;;;;;;;5092282;28;20027;-19
2020/12/16 09:42:34;;;;;;;6.72;3.95;;;;;;;;;;5093310;28;20379;-18
2020/12/16 09:45:10;;;;;;;12.13;8.63;;;;;;;;;;5093512;28;20031;-19
2020/12/16 09:47:48;;;;;;;15.38;7.80;;;;;;;;;;5093169;28;20031;-18
2020/12/16 09:50:14;;;;;;;42.53;18.67;;;;;;;;;;5091943;28;20076;-20
2020/12/16 09:52:40;;;;;;;47.03;26.00;;;;;;;;;;5091799;28;20062;-19
2020/12/16 09:55:12;;;;;;;32.70;16.08;;;;;;;;;;5091801;28;20031;-18
2020/12/16 09:57:38;;;;;;;40.55;18.85;;;;;;;;;;5093095;28;20081;-20
2020/12/16 10:00:05;;;;;;;30.92;14.98;;;;;;;;;;5093142;28;20024;-19
2020/12/16 10:02:34;;;;;;;30.88;16.38;;;;;;;;;;5092842;28;20060;-19
2020/12/16 10:05:00;;;;;;;20.50;9.32;;;;;;;;;;5091645;28;20072;-19
2020/12/16 10:07:25;;;;;;;11.88;6.35;;;;;;;;;;5092829;28;20024;-18
2020/12/16 10:09:54;;;;;;;11.38;5.57;;;;;;;;;;5092824;28;20055;-20
2020/12/16 10:12:23;;;;;;;10.25;4.95;;;;;;;;;;5091524;28;20052;-19
2020/12/16 10:14:50;;;;;;;10.55;6.35;;;;;;;;;;5092876;28;20020;-20
2020/12/16 10:17:19;;;;;;;11.10;5.45;;;;;;;;;;5092675;28;20530;-19
2020/12/16 10:19:44;;;;;;;7.43;4.50;;;;;;;;;;5092795;28;20027;-19
2020/12/16 10:22:10;;;;;;;8.10;4.60;;;;;;;;;;5092378;28;20029;-19
2020/12/16 10:24:35;;;;;;;11.20;5.80;;;;;;;;;;5092503;28;20024;-17
2020/12/16 10:27:02;;;;;;;9.27;4.28;;;;;;;;;;5092594;28;20043;-19
2020/12/16 10:29:28;;;;;;;11.38;4.85;;;;;;;;;;5092761;28;20143;-18
2020/12/16 10:31:54;;;;;;;9.70;5.20;;;;;;;;;;4738670;28;10000529;-19
2020/12/16 10:34:22;;;;;;;11.23;5.45;;;;;;;;;;5092414;28;20024;-19
2020/12/16 10:36:51;;;;;;;11.82;6.57;;;;;;;;;;5108303;28;20035;-20
2020/12/16 10:39:20;;;;;;;12.82;6.82;;;;;;;;;;5107961;28;20106;-22
2020/12/16 10:41:51;;;;;;;12.48;8.15;;;;;;;;;;5109419;28;20504;-21
2020/12/16 10:44:20;;;;;;;14.70;8.23;;;;;;;;;;5107155;28;20034;-21
2020/12/16 10:46:48;;;;;;;13.85;7.15;;;;;;;;;;5109019;28;20061;-21
2020/12/16 10:49:13;;;;;;;6.57;4.35;;;;;;;;;;5107758;28;20740;-20
2020/12/16 10:51:39;;;;;;;11.38;5.47;;;;;;;;;;5109007;28;20127;-21
2020/12/16 10:54:05;;;;;;;8.63;4.82;;;;;;;;;;5108540;28;20024;-20
2020/12/16 10:56:30;;;;;;;13.57;6.70;;;;;;;;;;5108280;28;20019;-22
2020/12/16 10:58:56;;;;;;;5.85;3.58;;;;;;;;;;5108934;28;20363;-20
2020/12/16 11:01:21;;;;;;;6.30;3.80;;;;;;;;;;5109607;28;20381;-20
2020/12/16 11:03:47;;;;;;;7.57;3.22;;;;;;;;;;5109681;28;20435;-21
2020/12/16 11:06:16;;;;;;;6.43;3.58;;;;;;;;;;5109257;28;20032;-21
2020/12/16 11:08:42;;;;;;;8.23;3.30;;;;;;;;;;5108896;28;20034;-20
2020/12/16 11:11:08;;;;;;;6.45;4.22;;;;;;;;;;5109103;28;20051;-21
2020/12/16 11:13:34;;;;;;;15.05;6.30;;;;;;;;;;5109085;28;20108;-20
2020/12/16 11:15:59;;;;;;;9.45;4.10;;;;;;;;;;5109099;28;20104;-20
2020/12/16 11:18:25;;;;;;;6.47;3.53;;;;;;;;;;5107292;28;20031;-20
2020/12/16 11:20:50;;;;;;;5.93;3.25;;;;;;;;;;5108741;28;20020;-19
2020/12/16 11:23:16;;;;;;;7.40;4.03;;;;;;;;;;5109464;28;20031;-19
2020/12/16 11:25:41;;;;;;;8.77;4.60;;;;;;;;;;5109115;28;20523;-20
2020/12/16 11:28:06;;;;;;;9.20;4.78;;;;;;;;;;5107703;28;20023;-20
2020/12/16 11:30:32;;;;;;;9.05;5.70;;;;;;;;;;5109069;28;20031;-22
2020/12/16 11:32:57;;;;;;;8.15;5.18;;;;;;;;;;5107180;28;20031;-20
2020/12/16 11:35:23;;;;;;;10.55;5.20;;;;;;;;;;5112640;28;20047;-24
2020/12/16 11:37:49;;;;;;;8.10;4.22;;;;;;;;;;5111049;28;20059;-21
2020/12/16 11:40:15;;;;;;;8.80;5.38;;;;;;;;;;5112093;28;20019;-19
2020/12/16 11:42:40;;;;;;;9.10;5.22;;;;;;;;;;5112575;28;20035;-21
2020/12/16 11:45:06;;;;;;;10.73;6.25;;;;;;;;;;5111995;28;20084;-20
2020/12/16 11:47:32;;;;;;;8.73;5.63;;;;;;;;;;5112568;28;20047;-19
2020/12/16 11:49:58;;;;;;;25.83;12.80;;;;;;;;;;5112028;28;20092;-19
2020/12/16 11:52:23;;;;;;;44.90;20.33;;;;;;;;;;5111982;28;20032;-20
2020/12/16 11:54:49;;;;;;;16.58;9.00;;;;;;;;;;5110760;28;20031;-18
2020/12/16 11:57:14;;;;;;;14.30;8.00;;;;;;;;;;5112101;28;20419;-20
2020/12/16 11:59:40;;;;;;;6.75;4.88;;;;;;;;;;5111853;28;20481;-20
2020/12/16 12:02:06;;;;;;;15.93;6.72;;;;;;;;;;5112168;28;20034;-21
2020/12/16 12:04:32;;;;;;;13.07;7.65;;;;;;;;;;5110215;28;20047;-20
2020/12/16 12:06:57;;;;;;;12.43;5.55;;;;;;;;;;5111689;28;20475;-21
2020/12/16 12:09:23;;;;;;;6.53;4.82;;;;;;;;;;5110466;28;20110;-20
2020/12/16 12:11:49;;;;;;;11.77;4.80;;;;;;;;;;5111853;28;20110;-20
2020/12/16 12:14:15;;;;;;;5.05;3.08;;;;;;;;;;5110899;28;20110;-21
2020/12/16 12:16:41;;;;;;;5.18;3.38;;;;;;;;;;5111611;28;20745;-19
2020/12/16 12:19:06;;;;;;;4.80;3.47;;;;;;;;;;5110825;28;20076;-20
2020/12/16 12:21:31;;;;;;;4.95;3.33;;;;;;;;;;5111784;28;20031;-20
2020/12/16 12:23:57;;;;;;;7.80;3.78;;;;;;;;;;5111591;28;20470;-21
2020/12/16 12:26:22;;;;;;;6.28;3.85;;;;;;;;;;5111986;28;20757;-20
2020/12/16 12:28:48;;;;;;;7.50;5.07;;;;;;;;;;5111911;28;20742;-20
2020/12/16 12:31:13;;;;;;;11.30;4.55;;;;;;;;;;5111955;28;20036;-21
2020/12/16 12:33:39;;;;;;;7.07;4.60;;;;;;;;;;5111335;28;20099;-20
2020/12/16 12:36:04;;;;;;;8.38;5.32;;;;;;;;;;5110441;28;20047;-21
2020/12/16 12:38:30;;;;;;;8.98;5.75;;;;;;;;;;5111385;28;20023;-19
2020/12/16 12:40:55;;;;;;;11.63;5.80;;;;;;;;;;5110195;28;20043;-21
2020/12/16 12:43:21;;;;;;;11.40;6.20;;;;;;;;;;5111185;28;20050;-22
2020/12/16 12:45:47;;;;;;;11.23;6.03;;;;;;;;;;5110854;28;20480;-20
2020/12/16 12:48:12;;;;;;;10.30;6.07;;;;;;;;;;5109936;28;20024;-21
2020/12/16 12:50:40;;;;;;;12.32;5.78;;;;;;;;;;5111293;28;20058;-20
2020/12/16 12:53:05;;;;;;;14.10;6.97;;;;;;;;;;5109951;28;20096;-20
2020/12/16 12:55:31;;;;;;;9.43;5.75;;;;;;;;;;5110920;28;20071;-20
2020/12/16 12:57:56;;;;;;;10.45;6.13;;;;;;;;;;5110023;28;20470;-22
2020/12/16 13:00:22;;;;;;;13.75;6.38;;;;;;;;;;5111609;28;20510;-18
2020/12/16 13:02:47;;;;;;;9.05;5.97;;;;;;;;;;5105436;28;20012;-19
2020/12/16 13:05:13;;;;;;;13.13;5.65;;;;;;;;;;5108232;28;20073;-20
2020/12/16 13:07:39;;;;;;;7.53;4.93;;;;;;;;;;5091603;28;20016;-21
2020/12/16 13:10:05;;;;;;;11.65;5.82;;;;;;;;;;5110547;28;20114;-20
2020/12/16 13:12:31;;;;;;;10.90;5.78;;;;;;;;;;5102109;28;20458;-20
2020/12/16 13:14:57;;;;;;;7.60;5.72;;;;;;;;;;5088683;28;20038;-24
2020/12/16 13:17:22;;;;;;;11.70;6.28;;;;;;;;;;5089986;28;20390;-21
2020/12/16 13:19:48;;;;;;;9.20;6.10;;;;;;;;;;5088339;28;20119;-20
2020/12/16 13:22:14;;;;;;;10.02;5.63;;;;;;;;;;5089840;28;20798;-20
2020/12/16 13:24:39;;;;;;;9.40;5.05;;;;;;;;;;5089915;28;20039;-20
2020/12/16 13:27:05;;;;;;;9.02;5.90;;;;;;;;;;5089852;28;20012;-20
2020/12/16 13:29:30;;;;;;;9.73;4.82;;;;;;;;;;5088389;28;20043;-20
2020/12/16 13:31:56;;;;;;;10.48;5.35;;;;;;;;;;5088304;28;20008;-21
2020/12/16 13:34:21;;;;;;;9.02;5.32;;;;;;;;;;5089618;28;20031;-20
2020/12/16 13:36:47;;;;;;;7.25;4.70;;;;;;;;;;5089610;28;20023;-20
2020/12/16 13:39:13;;;;;;;6.82;4.60;;;;;;;;;;5088375;28;20032;-21
2020/12/16 13:41:39;;;;;;;8.07;4.45;;;;;;;;;;5104830;28;20034;-20
2020/12/16 13:44:04;;;;;;;7.03;4.93;;;;;;;;;;5109582;28;20374;-21
2020/12/16 13:46:30;;;;;;;9.85;5.50;;;;;;;;;;5110131;28;20049;-20
2020/12/16 13:48:55;;;;;;;6.75;4.25;;;;;;;;;;5110254;28;20059;-20
2020/12/16 13:51:22;;;;;;;6.88;3.75;;;;;;;;;;5109822;28;20130;-18
2020/12/16 13:53:48;;;;;;;10.43;6.03;;;;;;;;;;5109499;28;20466;-18
2020/12/16 13:56:13;;;;;;;8.32;4.78;;;;;;;;;;5107342;28;20020;-17
2020/12/16 13:58:39;;;;;;;7.97;4.75;;;;;;;;;;5109915;28;20027;-18
2020/12/16 14:01:07;;;;;;;7.13;5.82;;;;;;;;;;5109783;28;20102;-18
2020/12/16 14:03:32;;;;;;;9.40;5.40;;;;;;;;;;5097122;28;20038;-20
2020/12/16 14:05:58;;;;;;;12.30;5.97;;;;;;;;;;5089860;28;20027;-19
2020/12/16 14:08:23;;;;;;;7.05;4.43;;;;;;;;;;5087782;28;20032;-19
2020/12/16 14:10:48;;;;;;;8.13;5.00;;;;;;;;;;5089345;28;20181;-19
2020/12/16 14:13:14;;;;;;;9.07;5.22;;;;;;;;;;5089521;28;20032;-19
2020/12/16 14:15:39;;;;;;;7.63;4.72;;;;;;;;;;5088002;28;20084;-20
2020/12/16 14:18:05;;;;;;;8.32;4.97;;;;;;;;;;5089484;28;20725;-20
2020/12/16 14:20:30;;;;;;;8.75;4.95;;;;;;;;;;5088881;28;20031;-18
2020/12/16 14:22:56;;;;;;;7.82;5.00;;;;;;;;;;5089277;28;20066;-19
2020/12/16 14:25:21;;;;;;;7.40;4.80;;;;;;;;;;5089427;28;20043;-19
2020/12/16 14:27:47;;;;;;;9.88;5.78;;;;;;;;;;5089444;28;20035;-19
2020/12/16 14:30:12;;;;;;;9.65;5.05;;;;;;;;;;5089570;28;20054;-19
2020/12/16 14:32:38;;;;;;;9.32;5.70;;;;;;;;;;5088788;28;20475;-19
2020/12/16 14:35:03;;;;;;;8.95;5.80;;;;;;;;;;5089342;28;20035;-18
2020/12/16 14:37:29;;;;;;;7.82;4.35;;;;;;;;;;5089462;28;20677;-19
2020/12/16 14:39:54;;;;;;;8.25;5.35;;;;;;;;;;5088905;28;20031;-18
2020/12/16 14:42:20;;;;;;;12.45;6.63;;;;;;;;;;5091541;28;20023;-19
2020/12/16 14:44:45;;;;;;;9.20;5.78;;;;;;;;;;5107540;28;20031;-18